CheckWX is a tool to help pilots better visualize weather data.  It is not intended as a substitute for an official pre-flight weather briefing.

14:55:51 UTC

KHKS TAF
Hawkins Field Airport
Jackson, Mississippi, USA
KHKS 171120Z 1712/1812 14004KT P6SM SKC

Aug-17@
12:00 UTC

Aug-17 @ 12:00 UTC

Aug-18@
12:00 UTC

Aug-18 @ 12:00 UTC

KHKS 171120Z 1712/1812 14004KT P6SM SKC
Wind
  • 140° at 4 KTS
Cloud Levels
  • Clear skies